Time;durP1;ratioP1;P1;durP2;ratioP2;P2;SDS_P1;SDS_P2;PMS_P1;PMS_P2;Temp;Humidity;BMP_temperature;BMP_pressure;BME280_temperature;BME280_humidity;BME280_pressure;Samples;Min_cycle;Max_cycle;Signal;HPM_P1;HPM_P2
2022/03/25 00:00:42;;;;;;;12.88;9.07;;;8.00;39.80;;;;;;5053912;28;20148;-64
2022/03/25 00:03:08;;;;;;;16.70;9.65;;;8.00;39.90;;;;;;5048837;28;20521;-64
2022/03/25 00:05:34;;;;;;;19.10;10.00;;;7.90;40.10;;;;;;5061991;28;20431;-63
2022/03/25 00:08:01;;;;;;;15.88;9.93;;;7.90;40.40;;;;;;5033626;28;20033;-64
2022/03/25 00:10:26;;;;;;;20.98;10.02;;;7.80;40.30;;;;;;5054073;28;20035;-64
2022/03/25 00:12:52;;;;;;;18.92;9.82;;;7.80;40.50;;;;;;5045741;28;20029;-64
2022/03/25 00:15:18;;;;;;;17.05;10.48;;;7.80;40.60;;;;;;5045108;28;20059;-64
2022/03/25 00:17:44;;;;;;;15.88;9.68;;;7.70;40.60;;;;;;5048362;28;20037;-63
2022/03/25 00:20:10;;;;;;;15.93;9.68;;;7.70;41.30;;;;;;5028132;28;20030;-63
2022/03/25 00:22:37;;;;;;;14.95;9.60;;;7.60;40.90;;;;;;5025641;28;20060;-64
2022/03/25 00:25:05;;;;;;;16.83;9.77;;;7.60;40.80;;;;;;5035283;28;20048;-63
2022/03/25 00:27:32;;;;;;;20.00;9.93;;;7.50;40.80;;;;;;5041318;28;20029;-64
2022/03/25 00:29:57;;;;;;;14.82;9.82;;;7.50;40.90;;;;;;5058693;28;20445;-65
2022/03/25 00:32:23;;;;;;;16.00;9.68;;;7.40;41.00;;;;;;5045581;28;20043;-64
2022/03/25 00:34:49;;;;;;;15.15;9.05;;;7.40;41.10;;;;;;5044388;28;20045;-64
2022/03/25 00:37:15;;;;;;;18.90;9.98;;;7.40;41.20;;;;;;5045897;28;20036;-64
2022/03/25 00:39:40;;;;;;;16.85;10.35;;;7.40;41.30;;;;;;5050691;28;20029;-64
2022/03/25 00:42:07;;;;;;;16.35;9.82;;;7.30;41.30;;;;;;5026845;28;20125;-63
2022/03/25 00:44:32;;;;;;;17.52;10.02;;;7.30;41.30;;;;;;5026815;28;20088;-64
2022/03/25 00:46:58;;;;;;;18.27;10.38;;;7.30;41.40;;;;;;5044059;28;20037;-64
2022/03/25 00:49:24;;;;;;;15.02;9.90;;;7.30;41.40;;;;;;5045759;28;20032;-65
2022/03/25 00:51:50;;;;;;;17.33;9.95;;;7.20;42.10;;;;;;5055853;28;20045;-64
2022/03/25 00:54:16;;;;;;;15.38;9.50;;;7.20;41.70;;;;;;5037741;28;20057;-63
2022/03/25 00:56:42;;;;;;;16.40;9.73;;;7.20;41.70;;;;;;5049554;28;20080;-63
2022/03/25 00:59:08;;;;;;;14.18;9.10;;;7.10;41.70;;;;;;5066650;28;20044;-64
2022/03/25 01:01:34;;;;;;;18.80;10.43;;;7.10;41.80;;;;;;5047485;28;20093;-63
2022/03/25 01:04:00;;;;;;;18.25;10.18;;;7.10;42.10;;;;;;5032360;28;20036;-65
2022/03/25 01:06:26;;;;;;;16.90;10.43;;;7.10;42.10;;;;;;5029646;28;20018;-63
2022/03/25 01:08:51;;;;;;;18.20;10.50;;;7.00;42.10;;;;;;5046512;28;20197;-64
2022/03/25 01:11:17;;;;;;;18.15;10.23;;;7.00;42.20;;;;;;5051867;28;20029;-65
2022/03/25 01:13:43;;;;;;;15.40;9.68;;;7.00;42.40;;;;;;5033566;28;20224;-64
2022/03/25 01:16:09;;;;;;;16.80;10.07;;;6.90;42.30;;;;;;5030612;28;20033;-63
2022/03/25 01:18:35;;;;;;;14.60;9.85;;;6.90;42.40;;;;;;5059364;28;20037;-63
2022/03/25 01:21:01;;;;;;;16.55;10.65;;;6.90;42.50;;;;;;5042859;28;20044;-63
2022/03/25 01:23:27;;;;;;;16.20;10.27;;;6.90;42.50;;;;;;5048514;28;20033;-63
2022/03/25 01:25:53;;;;;;;16.77;9.70;;;6.80;42.30;;;;;;5048040;28;20030;-64
2022/03/25 01:28:19;;;;;;;18.88;10.07;;;6.80;42.50;;;;;;5046364;28;20109;-62
2022/03/25 01:30:46;;;;;;;16.13;10.15;;;6.80;42.60;;;;;;5047885;28;20084;-63
2022/03/25 01:33:13;;;;;;;18.58;9.95;;;6.70;42.60;;;;;;5053165;28;20052;-64
2022/03/25 01:35:41;;;;;;;17.30;9.68;;;6.70;42.80;;;;;;5047238;28;20145;-62
2022/03/25 01:38:06;;;;;;;20.20;10.35;;;6.70;42.90;;;;;;5053466;28;20397;-63
2022/03/25 01:40:32;;;;;;;19.52;10.48;;;6.60;42.90;;;;;;5048090;28;20085;-65
2022/03/25 01:42:58;;;;;;;17.00;10.52;;;6.60;43.00;;;;;;5046577;28;20041;-64
2022/03/25 01:45:34;;;;;;;21.75;10.32;;;6.60;43.10;;;;;;5048550;28;20033;-65
2022/03/25 01:48:01;;;;;;;16.23;10.00;;;6.50;43.40;;;;;;5039536;28;20088;-65
2022/03/25 01:50:27;;;;;;;15.55;9.75;;;6.50;43.00;;;;;;5043825;28;20068;-64
2022/03/25 01:52:53;;;;;;;18.05;10.48;;;6.50;43.10;;;;;;5047129;28;20053;-64
2022/03/25 01:55:26;;;;;;;15.77;9.75;;;6.40;43.20;;;;;;5055703;28;20039;-64
2022/03/25 01:57:54;;;;;;;18.52;10.48;;;6.40;43.50;;;;;;5050449;28;20428;-64
2022/03/25 02:00:20;;;;;;;16.73;9.90;;;6.40;43.50;;;;;;5054652;28;20017;-64
2022/03/25 02:02:46;;;;;;;19.45;10.57;;;6.30;43.40;;;;;;5063645;28;20028;-64
2022/03/25 02:05:13;;;;;;;18.75;10.68;;;6.30;43.60;;;;;;5045597;28;20164;-64
2022/03/25 02:07:40;;;;;;;17.02;10.63;;;6.30;43.70;;;;;;5048888;28;20040;-64
2022/03/25 02:10:06;;;;;;;17.58;9.82;;;6.30;43.80;;;;;;5058187;28;20025;-65
2022/03/25 02:12:35;;;;;;;15.50;10.05;;;6.30;43.70;;;;;;5050751;28;20461;-64
2022/03/25 02:15:02;;;;;;;15.85;9.45;;;6.20;43.80;;;;;;5056759;28;20028;-63
2022/03/25 02:17:27;;;;;;;19.70;10.65;;;6.20;43.80;;;;;;5034115;28;20037;-64
2022/03/25 02:19:53;;;;;;;17.08;10.00;;;6.20;44.10;;;;;;5054443;28;20021;-63
2022/03/25 02:22:19;;;;;;;17.75;10.85;;;6.10;44.10;;;;;;5047410;28;20085;-63
2022/03/25 02:24:44;;;;;;;23.67;10.32;;;6.10;44.00;;;;;;5049044;28;20025;-63
2022/03/25 02:27:12;;;;;;;14.80;9.25;;;6.10;44.10;;;;;;5049219;28;20041;-64
2022/03/25 02:29:39;;;;;;;15.48;9.32;;;6.10;44.40;;;;;;5038147;28;20033;-63
2022/03/25 02:32:05;;;;;;;16.55;9.70;;;6.00;44.20;;;;;;5047111;28;20021;-63
2022/03/25 02:34:31;;;;;;;21.63;10.65;;;6.00;44.40;;;;;;5034187;28;20020;-64
2022/03/25 02:36:57;;;;;;;16.27;10.35;;;6.00;44.50;;;;;;5046745;28;20101;-63
2022/03/25 02:39:23;;;;;;;16.40;10.63;;;6.00;44.60;;;;;;5028786;28;20393;-63
2022/03/25 02:41:51;;;;;;;17.90;10.55;;;5.90;44.60;;;;;;5054482;28;20029;-64
2022/03/25 02:44:16;;;;;;;19.00;10.30;;;5.90;44.60;;;;;;5046475;28;20022;-64
2022/03/25 02:46:42;;;;;;;16.80;10.40;;;5.90;44.50;;;;;;5044564;28;20029;-63
2022/03/25 02:49:07;;;;;;;19.98;10.18;;;5.90;44.50;;;;;;5032738;28;20105;-64
2022/03/25 02:51:33;;;;;;;21.33;10.98;;;5.90;44.60;;;;;;5046266;28;20045;-63
2022/03/25 02:53:59;;;;;;;17.38;10.85;;;5.90;44.70;;;;;;5043452;28;20054;-63
2022/03/25 02:56:25;;;;;;;16.17;9.85;;;5.80;44.80;;;;;;5060879;28;20022;-63
2022/03/25 02:58:51;;;;;;;16.17;10.32;;;5.80;44.80;;;;;;5051562;28;20047;-63
2022/03/25 03:01:18;;;;;;;19.52;9.98;;;5.80;44.80;;;;;;5065230;28;20337;-64
2022/03/25 03:03:45;;;;;;;16.77;10.25;;;5.80;45.00;;;;;;5048529;28;20025;-64
2022/03/25 03:06:11;;;;;;;17.27;11.07;;;5.70;44.80;;;;;;5045485;28;20033;-63
2022/03/25 03:08:37;;;;;;;19.52;10.48;;;5.70;44.90;;;;;;5046948;28;20035;-64
2022/03/25 03:11:03;;;;;;;13.90;8.70;;;5.70;45.00;;;;;;5045354;28;20105;-63
2022/03/25 03:13:29;;;;;;;18.65;11.10;;;5.70;45.10;;;;;;5046051;28;20030;-63
2022/03/25 03:15:54;;;;;;;18.35;9.95;;;5.70;45.10;;;;;;5045599;28;20045;-63
2022/03/25 03:18:20;;;;;;;15.88;9.40;;;5.60;45.10;;;;;;5047676;28;20044;-63
2022/03/25 03:20:46;;;;;;;17.80;10.20;;;5.60;45.10;;;;;;5063084;28;20052;-64
2022/03/25 03:23:12;;;;;;;18.38;10.25;;;5.60;45.30;;;;;;5052239;28;20037;-64
2022/03/25 03:25:38;;;;;;;16.42;10.20;;;5.50;45.30;;;;;;5048561;28;20562;-64
2022/03/25 03:28:04;;;;;;;18.15;10.35;;;5.50;45.50;;;;;;5046292;28;20030;-64
2022/03/25 03:30:30;;;;;;;16.52;9.77;;;5.50;45.50;;;;;;5056247;28;20084;-64
2022/03/25 03:32:58;;;;;;;19.85;10.13;;;5.40;45.50;;;;;;5047905;28;20044;-64
2022/03/25 03:35:27;;;;;;;19.27;11.18;;;5.40;45.50;;;;;;5043230;28;20112;-64
2022/03/25 03:37:54;;;;;;;14.77;9.80;;;5.40;46.00;;;;;;5049148;28;20037;-63
2022/03/25 03:40:20;;;;;;;16.65;10.55;;;5.40;45.90;;;;;;5047279;28;20031;-63
2022/03/25 03:42:46;;;;;;;20.63;10.77;;;5.30;45.90;;;;;;5059122;28;20065;-63
2022/03/25 03:45:13;;;;;;;17.73;9.98;;;5.30;45.90;;;;;;5057348;28;20088;-64
2022/03/25 03:47:41;;;;;;;18.52;10.15;;;5.30;46.00;;;;;;5044811;28;20040;-62
2022/03/25 03:50:09;;;;;;;18.60;11.60;;;5.30;46.70;;;;;;5043052;28;20033;-64
2022/03/25 03:52:35;;;;;;;20.35;10.65;;;5.30;46.20;;;;;;5015972;28;20042;-62
2022/03/25 03:55:03;;;;;;;22.33;11.75;;;5.20;46.10;;;;;;5043491;28;20061;-62
2022/03/25 03:57:29;;;;;;;18.90;11.50;;;5.20;46.40;;;;;;5023810;28;20064;-62
2022/03/25 03:59:55;;;;;;;21.05;11.07;;;5.20;46.30;;;;;;5007252;28;20033;-64
2022/03/25 04:02:21;;;;;;;17.90;10.88;;;5.20;46.30;;;;;;5030653;28;20086;-62
2022/03/25 04:04:47;;;;;;;17.67;11.07;;;5.10;46.40;;;;;;5044001;28;20065;-64
2022/03/25 04:07:13;;;;;;;18.27;11.13;;;5.10;46.50;;;;;;5035030;28;20026;-64
2022/03/25 04:09:39;;;;;;;18.48;10.82;;;5.10;46.50;;;;;;5024875;28;20124;-64
2022/03/25 04:12:06;;;;;;;25.13;11.30;;;5.30;46.70;;;;;;5033263;28;20077;-64
2022/03/25 04:14:31;;;;;;;19.42;11.18;;;5.10;46.60;;;;;;5044018;28;20120;-64
2022/03/25 04:16:57;;;;;;;18.40;11.68;;;5.10;46.70;;;;;;5032693;28;20137;-64
2022/03/25 04:19:22;;;;;;;16.60;10.98;;;5.10;46.70;;;;;;5025389;28;20506;-64
2022/03/25 04:21:48;;;;;;;17.30;10.05;;;5.10;46.70;;;;;;5006693;28;20054;-64
2022/03/25 04:24:14;;;;;;;16.27;10.18;;;5.00;46.70;;;;;;5024727;28;20058;-64
2022/03/25 04:26:39;;;;;;;18.00;10.98;;;5.00;46.70;;;;;;5018436;28;20030;-64
2022/03/25 04:29:06;;;;;;;17.98;9.98;;;5.00;46.70;;;;;;5046547;28;20037;-64
2022/03/25 04:31:32;;;;;;;17.90;11.32;;;5.00;46.70;;;;;;5033425;28;20025;-64
2022/03/25 04:33:58;;;;;;;20.52;11.20;;;4.90;46.70;;;;;;5045438;28;20017;-64
2022/03/25 04:36:23;;;;;;;18.08;11.32;;;4.90;46.80;;;;;;5046250;28;20097;-64
2022/03/25 04:38:49;;;;;;;19.75;11.73;;;4.90;46.90;;;;;;5048239;28;20040;-63
2022/03/25 04:41:15;;;;;;;24.55;11.30;;;4.90;47.00;;;;;;5030408;28;20067;-64
2022/03/25 04:43:40;;;;;;;16.83;10.82;;;4.90;47.00;;;;;;5048141;28;20025;-64
2022/03/25 04:46:08;;;;;;;18.42;11.05;;;4.90;47.10;;;;;;5015835;28;20034;-64
2022/03/25 04:48:34;;;;;;;17.48;10.68;;;4.90;47.10;;;;;;5047864;28;20056;-64
2022/03/25 04:50:59;;;;;;;16.75;10.18;;;4.80;47.10;;;;;;5029741;28;20029;-64
2022/03/25 04:53:26;;;;;;;20.70;10.85;;;4.80;47.20;;;;;;5048179;28;20501;-64
2022/03/25 04:55:52;;;;;;;19.05;10.88;;;4.80;47.20;;;;;;5045364;28;20025;-64
2022/03/25 04:58:18;;;;;;;19.30;10.88;;;4.80;47.10;;;;;;5049034;28;20101;-63
2022/03/25 05:00:44;;;;;;;17.83;10.40;;;4.80;47.20;;;;;;5046347;28;20034;-63
2022/03/25 05:03:11;;;;;;;17.35;11.02;;;4.80;47.30;;;;;;5047949;28;20072;-64
2022/03/25 05:05:37;;;;;;;18.88;11.02;;;4.70;47.20;;;;;;5029307;28;20022;-62
2022/03/25 05:08:04;;;;;;;21.67;10.93;;;4.70;47.30;;;;;;5047857;28;20022;-62
2022/03/25 05:10:29;;;;;;;21.13;11.77;;;4.70;47.40;;;;;;5046480;28;20549;-62
2022/03/25 05:12:55;;;;;;;21.08;10.68;;;4.70;47.50;;;;;;5047422;28;20033;-63
2022/03/25 05:15:21;;;;;;;16.90;10.73;;;4.70;47.50;;;;;;5028651;28;20022;-63
2022/03/25 05:17:51;;;;;;;18.17;11.00;;;4.70;47.60;;;;;;5047765;28;20049;-62
2022/03/25 05:20:17;;;;;;;23.45;10.95;;;4.70;47.80;;;;;;5028500;28;20029;-62
2022/03/25 05:22:44;;;;;;;18.38;11.23;;;4.60;47.60;;;;;;5029587;28;20029;-62
2022/03/25 05:25:11;;;;;;;18.90;11.63;;;4.60;47.70;;;;;;5028674;28;20045;-63
2022/03/25 05:28:03;;;;;;;18.48;11.20;;;4.60;47.80;;;;;;5047102;28;20025;-63
2022/03/25 05:30:31;;;;;;;17.35;11.02;;;4.60;49.00;;;;;;5028494;28;20065;-62
2022/03/25 05:32:58;;;;;;;19.23;10.25;;;4.60;47.90;;;;;;5047585;28;20021;-62
2022/03/25 05:35:25;;;;;;;20.08;11.73;;;4.60;47.90;;;;;;5046088;28;20018;-63
2022/03/25 05:37:51;;;;;;;21.42;11.43;;;4.60;48.00;;;;;;5047140;28;20038;-62
2022/03/25 05:40:19;;;;;;;16.98;10.43;;;4.60;48.10;;;;;;5027959;28;20033;-63
2022/03/25 05:42:45;;;;;;;18.08;11.02;;;4.60;48.10;;;;;;5047038;28;20137;-62
2022/03/25 05:45:10;;;;;;;19.80;11.00;;;4.60;48.00;;;;;;5045466;28;20052;-62
2022/03/25 05:47:37;;;;;;;16.05;10.77;;;4.70;48.20;;;;;;5047152;28;20021;-62
2022/03/25 05:50:05;;;;;;;23.20;11.48;;;4.70;48.30;;;;;;5045725;28;20109;-63
2022/03/25 05:52:31;;;;;;;19.48;11.50;;;4.70;48.40;;;;;;5047084;28;20068;-62
2022/03/25 05:54:57;;;;;;;21.40;11.43;;;4.80;48.40;;;;;;5045644;28;20025;-62
2022/03/25 05:57:22;;;;;;;19.55;11.48;;;4.80;48.50;;;;;;5046672;28;20030;-62
2022/03/25 05:59:48;;;;;;;19.02;10.88;;;4.90;48.50;;;;;;5046672;28;20092;-63
2022/03/25 06:02:14;;;;;;;17.05;10.95;;;4.90;48.50;;;;;;5046030;28;20036;-63
2022/03/25 06:04:40;;;;;;;20.23;10.95;;;5.00;48.40;;;;;;5028337;28;20030;-63
2022/03/25 06:07:06;;;;;;;19.38;11.32;;;5.10;48.40;;;;;;5040493;28;20021;-63
2022/03/25 06:09:32;;;;;;;23.10;11.77;;;5.10;48.30;;;;;;5046547;28;20400;-63
2022/03/25 06:11:58;;;;;;;19.33;11.27;;;5.20;48.40;;;;;;5045507;28;20087;-63
2022/03/25 06:14:25;;;;;;;17.92;11.52;;;5.30;48.40;;;;;;5046338;28;20030;-63
2022/03/25 06:16:51;;;;;;;17.52;10.63;;;5.40;48.40;;;;;;5027493;28;20068;-63
2022/03/25 06:19:20;;;;;;;18.13;9.90;;;5.50;48.40;;;;;;5046340;28;20034;-63
2022/03/25 06:21:46;;;;;;;21.73;11.38;;;5.50;48.30;;;;;;5045437;28;20083;-63
2022/03/25 06:24:12;;;;;;;20.30;11.43;;;5.70;48.30;;;;;;5028465;28;20112;-64
2022/03/25 06:26:37;;;;;;;20.80;11.32;;;5.80;48.30;;;;;;5044793;28;20477;-64
2022/03/25 06:29:04;;;;;;;20.38;11.20;;;5.90;48.30;;;;;;5046348;28;20028;-62
2022/03/25 06:31:30;;;;;;;18.80;12.02;;;5.90;48.30;;;;;;5027043;28;20025;-62
2022/03/25 06:33:55;;;;;;;18.58;10.82;;;6.10;48.30;;;;;;5046092;28;20033;-63
2022/03/25 06:36:22;;;;;;;25.23;12.43;;;6.20;48.20;;;;;;5045147;28;20025;-62
2022/03/25 06:38:48;;;;;;;26.38;11.75;;;6.30;48.10;;;;;;5046412;28;20056;-62
2022/03/25 06:41:14;;;;;;;24.25;11.80;;;6.50;48.10;;;;;;5033764;28;20030;-62
2022/03/25 06:43:39;;;;;;;19.75;11.52;;;6.60;47.90;;;;;;5045383;28;20083;-64
2022/03/25 06:46:05;;;;;;;23.08;11.05;;;6.70;47.90;;;;;;5044369;28;20025;-63
2022/03/25 06:48:32;;;;;;;24.75;12.10;;;6.80;47.80;;;;;;5028347;28;20029;-63
2022/03/25 06:50:59;;;;;;;18.60;11.43;;;6.90;47.80;;;;;;5025975;28;20030;-62
2022/03/25 06:53:26;;;;;;;22.45;12.65;;;7.10;47.70;;;;;;5045779;28;20038;-63
2022/03/25 06:55:52;;;;;;;25.73;11.80;;;7.20;47.50;;;;;;5027083;28;20040;-63
2022/03/25 06:58:18;;;;;;;19.13;11.65;;;7.30;47.40;;;;;;5036856;28;20493;-62
2022/03/25 07:00:45;;;;;;;24.33;12.10;;;7.50;47.30;;;;;;5046308;28;20029;-62
2022/03/25 07:03:11;;;;;;;21.50;11.63;;;7.60;47.20;;;;;;5026686;28;20032;-62
2022/03/25 07:05:37;;;;;;;21.65;12.07;;;7.80;47.10;;;;;;5024786;28;20045;-62
2022/03/25 07:08:04;;;;;;;34.03;12.45;;;7.90;47.00;;;;;;5043754;28;20017;-61
2022/03/25 07:10:30;;;;;;;22.67;11.15;;;8.00;46.90;;;;;;5027867;28;20049;-62
2022/03/25 07:12:57;;;;;;;24.30;12.07;;;8.20;46.80;;;;;;5044374;28;20392;-62
2022/03/25 07:15:23;;;;;;;21.30;12.18;;;8.40;46.60;;;;;;5045587;28;20029;-61
2022/03/25 07:17:50;;;;;;;19.33;11.57;;;8.50;46.40;;;;;;5043858;28;20114;-63
2022/03/25 07:20:18;;;;;;;23.30;11.88;;;8.60;46.40;;;;;;5045679;28;20047;-62
2022/03/25 07:22:45;;;;;;;21.27;11.60;;;8.80;46.20;;;;;;5044505;28;20044;-62
2022/03/25 07:25:13;;;;;;;20.17;11.50;;;8.90;46.00;;;;;;5045310;28;20105;-64
2022/03/25 07:27:39;;;;;;;27.30;13.00;;;9.10;45.90;;;;;;5043524;28;20025;-64
2022/03/25 07:30:05;;;;;;;22.20;11.88;;;9.30;45.80;;;;;;5045657;28;20037;-64
2022/03/25 07:32:31;;;;;;;29.30;12.63;;;9.40;45.50;;;;;;5045327;28;20026;-63
2022/03/25 07:34:57;;;;;;;24.55;12.45;;;9.60;45.30;;;;;;5025920;28;20036;-63
2022/03/25 07:37:23;;;;;;;19.85;12.88;;;9.80;45.00;;;;;;5044962;28;20112;-62
2022/03/25 07:39:49;;;;;;;17.83;12.90;;;9.90;44.70;;;;;;5026145;28;20030;-63
2022/03/25 07:42:15;;;;;;;26.58;13.70;;;10.10;44.70;;;;;;5045166;28;20509;-64
2022/03/25 07:44:41;;;;;;;19.98;12.52;;;10.30;44.50;;;;;;5043563;28;20021;-64
2022/03/25 07:47:08;;;;;;;26.33;12.35;;;10.40;44.20;;;;;;5044323;28;20100;-63
2022/03/25 07:49:35;;;;;;;25.23;12.35;;;10.70;44.00;;;;;;5043818;28;20044;-62
2022/03/25 07:52:03;;;;;;;25.70;13.68;;;10.80;43.70;;;;;;5044455;28;20045;-63
2022/03/25 07:54:29;;;;;;;23.67;13.75;;;11.00;43.60;;;;;;5026030;28;20032;-62
2022/03/25 07:56:58;;;;;;;20.70;12.85;;;11.20;43.50;;;;;;5026697;28;20041;-64
2022/03/25 07:59:25;;;;;;;24.13;13.63;;;11.50;43.30;;;;;;5043931;28;20030;-64
2022/03/25 08:01:52;;;;;;;21.00;12.60;;;11.70;43.00;;;;;;5027270;28;20029;-64
2022/03/25 08:04:20;;;;;;;24.13;13.30;;;11.90;42.70;;;;;;5043533;28;20026;-64
2022/03/25 08:06:46;;;;;;;18.95;11.63;;;12.10;42.40;;;;;;5026505;28;20030;-63
2022/03/25 08:09:12;;;;;;;24.05;12.65;;;12.30;42.20;;;;;;5043686;28;20390;-64
2022/03/25 08:11:39;;;;;;;30.38;14.23;;;12.50;42.00;;;;;;5044366;28;20013;-64
2022/03/25 08:14:05;;;;;;;23.25;12.95;;;12.70;41.70;;;;;;5043506;28;20040;-64
2022/03/25 08:16:30;;;;;;;19.80;12.73;;;12.90;41.40;;;;;;5044591;28;20018;-64
2022/03/25 08:18:56;;;;;;;26.55;13.13;;;13.10;40.90;;;;;;5043304;28;20048;-62
2022/03/25 08:21:22;;;;;;;24.00;12.25;;;13.30;40.70;;;;;;5043855;28;20030;-63
2022/03/25 08:29:17;;;;;;;21.13;11.80;;;13.90;39.90;;;;;;5043735;28;20047;-64
2022/03/25 08:31:43;;;;;;;23.10;12.43;;;14.10;39.50;;;;;;5044186;28;20021;-64
2022/03/25 08:34:14;;;;;;;29.35;13.27;;;14.20;38.70;;;;;;5043501;28;20021;-64
2022/03/25 08:36:40;;;;;;;27.15;12.82;;;14.40;38.30;;;;;;5026326;28;20056;-62
2022/03/25 08:39:06;;;;;;;26.33;14.00;;;14.60;38.10;;;;;;5043174;28;20034;-64
2022/03/25 08:41:32;;;;;;;22.02;13.68;;;14.80;37.80;;;;;;5044222;28;20025;-63
2022/03/25 08:43:58;;;;;;;19.98;13.30;;;15.10;37.60;;;;;;5043286;28;20072;-63
2022/03/25 08:46:24;;;;;;;29.77;15.02;;;15.30;37.20;;;;;;5043682;28;20025;-64
2022/03/25 08:48:49;;;;;;;26.73;15.25;;;15.50;37.10;;;;;;5043459;28;20068;-63
2022/03/25 08:51:16;;;;;;;27.58;14.50;;;15.70;36.30;;;;;;5042130;28;20037;-63
2022/03/25 08:53:43;;;;;;;27.02;14.75;;;15.90;35.70;;;;;;5044362;28;20489;-64
2022/03/25 08:56:09;;;;;;;22.65;14.25;;;16.10;35.20;;;;;;5043008;28;20032;-64
2022/03/25 08:58:36;;;;;;;25.45;14.85;;;16.30;34.50;;;;;;5042841;28;20076;-64
2022/03/25 09:01:01;;;;;;;22.50;15.00;;;16.50;34.30;;;;;;5033280;28;20026;-63
2022/03/25 09:03:27;;;;;;;26.48;15.13;;;16.70;34.80;;;;;;5049149;28;20025;-63
2022/03/25 09:05:53;;;;;;;28.77;15.93;;;16.90;34.10;;;;;;5042508;28;20017;-63
2022/03/25 09:08:18;;;;;;;25.08;14.75;;;17.10;34.20;;;;;;5026484;28;20398;-63
2022/03/25 09:10:44;;;;;;;23.60;15.00;;;17.30;34.00;;;;;;5025217;28;20104;-63
2022/03/25 09:13:11;;;;;;;27.67;16.27;;;17.50;33.70;;;;;;5044294;28;20104;-64
2022/03/25 09:15:37;;;;;;;28.75;16.98;;;17.70;32.80;;;;;;5046324;28;20029;-63
2022/03/25 09:18:03;;;;;;;33.03;16.30;;;17.80;32.90;;;;;;5029674;28;20466;-63
2022/03/25 09:20:28;;;;;;;26.33;16.25;;;18.10;33.10;;;;;;5045940;28;20192;-64
2022/03/25 09:22:54;;;;;;;26.02;16.80;;;18.20;32.70;;;;;;5047794;28;20057;-63
2022/03/25 09:25:20;;;;;;;27.77;17.10;;;18.40;32.40;;;;;;5047210;28;20027;-64
2022/03/25 09:27:46;;;;;;;23.80;16.80;;;18.50;32.20;;;;;;5046156;28;20045;-64
2022/03/25 09:30:13;;;;;;;25.98;16.95;;;18.70;31.70;;;;;;5047678;28;20032;-64
2022/03/25 09:32:39;;;;;;;23.52;16.35;;;18.80;31.80;;;;;;5046391;28;20182;-63
2022/03/25 09:35:13;;;;;;;30.98;17.02;;;19.00;31.70;;;;;;5047034;28;20053;-64
2022/03/25 09:37:44;;;;;;;29.27;18.77;;;19.20;31.80;;;;;;5044834;28;20026;-64
2022/03/25 09:40:20;;;;;;;28.17;17.45;;;19.30;30.90;;;;;;5047338;28;20109;-64
2022/03/25 09:42:47;;;;;;;25.73;18.50;;;19.40;30.70;;;;;;5027640;28;20029;-63
2022/03/25 09:45:18;;;;;;;28.10;18.70;;;19.60;30.70;;;;;;5028711;28;20427;-64
2022/03/25 09:47:45;;;;;;;30.60;17.90;;;19.70;30.10;;;;;;5049397;28;20063;-63
2022/03/25 09:50:14;;;;;;;33.78;18.20;;;19.80;30.00;;;;;;5051187;28;20075;-64
2022/03/25 09:52:41;;;;;;;28.85;18.70;;;20.00;29.70;;;;;;5053939;28;20076;-64
2022/03/25 09:55:07;;;;;;;27.48;18.38;;;20.10;30.00;;;;;;5061142;28;20124;-62
2022/03/25 09:57:33;;;;;;;28.80;17.92;;;20.20;29.90;;;;;;5058013;28;20030;-62
2022/03/25 09:59:59;;;;;;;25.45;17.70;;;20.40;30.10;;;;;;5058142;28;20029;-63
2022/03/25 10:02:25;;;;;;;24.13;17.17;;;20.50;29.70;;;;;;5052165;28;20040;-64
2022/03/25 10:04:55;;;;;;;26.20;18.35;;;20.60;29.20;;;;;;5056384;28;20511;-61
2022/03/25 10:07:26;;;;;;;29.45;18.25;;;20.70;28.20;;;;;;5059225;28;20025;-62
2022/03/25 10:10:13;;;;;;;29.40;18.35;;;20.70;28.00;;;;;;5064072;28;20053;-62
2022/03/25 10:12:41;;;;;;;30.10;17.20;;;20.80;27.10;;;;;;5062782;28;20040;-62
2022/03/25 10:15:25;;;;;;;23.85;15.80;;;20.80;28.00;;;;;;5057887;28;20025;-63
2022/03/25 10:17:58;;;;;;;;;;;20.90;26.90;;;;;;5063242;28;20038;-62
2022/03/25 10:20:35;;;;;;;18.10;13.13;;;21.00;28.30;;;;;;5058973;28;19916;-61
2022/03/25 10:23:19;;;;;;;18.20;13.45;;;21.10;26.80;;;;;;5044804;28;20029;-63
2022/03/25 10:25:51;;;;;;;21.95;14.27;;;21.10;26.50;;;;;;5060202;28;20053;-64
2022/03/25 10:28:32;;;;;;;19.23;12.68;;;21.20;26.60;;;;;;5055234;28;20020;-63
2022/03/25 10:31:13;;;;;;;21.85;12.65;;;21.20;25.20;;;;;;5060675;28;20021;-63
2022/03/25 10:33:48;;;;;;;17.00;11.73;;;21.30;25.20;;;;;;5051650;28;20021;-63
2022/03/25 10:36:20;;;;;;;16.52;11.82;;;21.30;24.30;;;;;;5055243;28;20021;-62
2022/03/25 10:38:54;;;;;;;21.10;14.52;;;21.30;25.00;;;;;;5058193;28;20062;-63
2022/03/25 10:41:25;;;;;;;20.58;13.90;;;21.40;25.00;;;;;;5049716;28;20406;-62
2022/03/25 10:43:53;;;;;;;20.85;15.10;;;21.40;25.50;;;;;;5057791;28;20115;-63
2022/03/25 10:46:29;;;;;;;23.65;15.60;;;21.40;25.60;;;;;;5052878;28;20088;-64
2022/03/25 10:48:54;;;;;;;34.72;15.70;;;21.50;24.80;;;;;;5064135;28;20067;-64
2022/03/25 10:51:20;;;;;;;20.90;15.13;;;21.50;25.30;;;;;;5045141;28;20053;-63
2022/03/25 10:53:54;;;;;;;19.45;13.75;;;21.60;25.40;;;;;;5046255;28;20049;-65
2022/03/25 10:56:20;;;;;;;16.42;13.23;;;21.70;25.40;;;;;;5033527;28;20511;-64
2022/03/25 10:58:53;;;;;;;20.33;14.43;;;21.80;25.20;;;;;;5045564;28;20073;-63
2022/03/25 11:01:19;;;;;;;26.53;16.10;;;21.90;25.00;;;;;;5044620;28;20056;-64
2022/03/25 11:03:46;;;;;;;21.08;15.40;;;22.00;24.80;;;;;;5051859;28;20304;-65
2022/03/25 11:06:15;;;;;;;24.48;15.45;;;22.10;25.00;;;;;;5052582;28;20032;-64
2022/03/25 11:08:42;;;;;;;22.45;15.65;;;22.20;24.90;;;;;;5053581;28;20040;-65
2022/03/25 11:11:08;;;;;;;21.30;15.27;;;22.20;24.50;;;;;;5053064;28;20037;-64
2022/03/25 11:13:34;;;;;;;24.90;14.60;;;22.30;24.40;;;;;;5032172;28;20053;-64
2022/03/25 11:16:02;;;;;;;21.58;14.88;;;22.30;24.00;;;;;;5045019;28;20022;-65
2022/03/25 11:18:28;;;;;;;22.15;15.27;;;22.40;23.80;;;;;;5046069;28;20033;-64
2022/03/25 11:21:00;;;;;;;21.10;13.45;;;22.40;23.50;;;;;;5044073;28;20032;-64
2022/03/25 11:23:36;;;;;;;19.63;13.18;;;22.40;23.00;;;;;;5045748;28;20034;-63
2022/03/25 11:26:05;;;;;;;23.33;13.88;;;22.50;23.40;;;;;;5044205;28;20227;-64
2022/03/25 11:28:33;;;;;;;16.88;12.38;;;22.50;23.80;;;;;;5045357;28;20021;-64
2022/03/25 11:31:05;;;;;;;22.30;14.25;;;22.50;23.40;;;;;;5043636;28;20051;-64
2022/03/25 11:33:31;;;;;;;23.20;15.65;;;22.60;23.60;;;;;;5045280;28;20025;-64
2022/03/25 11:36:15;;;;;;;19.80;14.88;;;22.60;23.70;;;;;;5025869;28;20106;-65
2022/03/25 11:38:41;;;;;;;21.63;16.27;;;22.70;23.60;;;;;;5045136;28;20037;-65
2022/03/25 11:41:27;;;;;;;25.55;16.60;;;22.70;24.20;;;;;;5043662;28;20025;-63
2022/03/25 11:44:14;;;;;;;28.45;16.35;;;22.90;23.20;;;;;;5045100;28;20025;-65
2022/03/25 11:47:02;;;;;;;25.92;18.50;;;22.90;23.20;;;;;;4975142;28;20034;-63
2022/03/25 11:49:32;;;;;;;22.85;15.73;;;23.00;23.00;;;;;;5044645;28;20029;-64
2022/03/25 11:52:23;;;;;;;27.48;16.75;;;23.00;23.70;;;;;;5043602;28;20060;-65
2022/03/25 11:54:55;;;;;;;23.17;16.05;;;23.10;23.00;;;;;;5045346;28;20029;-65
2022/03/25 11:57:25;;;;;;;22.50;16.88;;;23.20;23.40;;;;;;5040913;28;20033;-65
2022/03/25 11:59:52;;;;;;;21.73;17.33;;;23.20;23.30;;;;;;5044284;28;20037;-64
2022/03/25 12:02:26;;;;;;;25.42;17.08;;;23.30;23.70;;;;;;5043582;28;20025;-65
2022/03/25 12:04:52;;;;;;;25.52;16.55;;;23.40;23.60;;;;;;5044573;28;20045;-64
2022/03/25 12:07:18;;;;;;;24.13;16.98;;;23.50;23.30;;;;;;5043452;28;20037;-65
2022/03/25 12:09:46;;;;;;;23.75;16.42;;;23.50;23.00;;;;;;5044445;28;20513;-65
2022/03/25 12:12:13;;;;;;;22.73;16.10;;;23.60;22.30;;;;;;5043573;28;20822;-64
2022/03/25 12:15:10;;;;;;;26.20;15.60;;;23.60;22.90;;;;;;5044427;28;20037;-65
2022/03/25 12:17:36;;;;;;;23.02;16.02;;;23.70;21.00;;;;;;5043581;28;20029;-65
2022/03/25 12:20:03;;;;;;;22.38;16.60;;;23.80;22.40;;;;;;5026621;28;20025;-65
2022/03/25 12:22:33;;;;;;;23.73;17.02;;;23.80;22.40;;;;;;5043046;28;20029;-65
2022/03/25 12:25:04;;;;;;;24.00;16.85;;;23.80;22.20;;;;;;5044293;28;20136;-65
2022/03/25 12:27:30;;;;;;;28.15;17.75;;;23.80;21.60;;;;;;5037231;28;20026;-64
2022/03/25 12:29:56;;;;;;;20.73;16.08;;;23.80;22.30;;;;;;5043808;28;20064;-66
2022/03/25 12:32:24;;;;;;;23.95;16.42;;;23.80;22.40;;;;;;5043581;28;20048;-65
2022/03/25 12:35:11;;;;;;;25.88;17.15;;;23.80;22.40;;;;;;5044544;28;20025;-64
2022/03/25 12:37:58;;;;;;;24.48;16.27;;;23.90;21.40;;;;;;5042506;28;20094;-64
2022/03/25 12:40:27;;;;;;;24.35;17.23;;;23.90;22.40;;;;;;5024009;28;20026;-64
2022/03/25 12:42:54;;;;;;;25.38;16.45;;;24.00;22.70;;;;;;5044891;28;20022;-63